AVA8412 SKRG-TNCC
Flight info
| Callsign | AVA8412 |
|---|---|
| Flight time | N/A |
| Altitude | 37000 |
| Route | DIPRA1C DIPRA UW26 CUC UW1 ENPUT UL450 STB UG431 CRO UL325 ALCOT G431 EMAPA EMAPA1B |
| Aircraft | A320/M-SDE3FGHIRWY/LB1 |
Departure
| Time | 2026-04-29 18:43 |
|---|---|
| Airport | Jose Maria Córdova International Airport (SKRG) |
Arrival
| Time | N/A |
|---|---|
| Airport | Hato International Airport (TNCC) |
| Time | Latitude | Longitude | Altitude | Speed | Heading |
|---|---|---|---|---|---|
| 2026-04-29 18:09 | 6.17013 | -75.42740 | 7016 ft | 0 kts | 316° |
| 2026-04-29 18:33 | 6.16996 | -75.42725 | 7021 ft | 4 kts | 330° |
| 2026-04-29 18:34 | 6.16972 | -75.42717 | 7016 ft | 4 kts | 12° |
| 2026-04-29 18:34 | 6.16960 | -75.42722 | 7016 ft | 2 kts | 50° |
| 2026-04-29 18:34 | 6.16959 | -75.42723 | 7016 ft | 0 kts | 51° |
| 2026-04-29 18:37 | 6.16969 | -75.42711 | 7020 ft | 5 kts | 51° |
| 2026-04-29 18:37 | 6.17002 | -75.42679 | 7019 ft | 7 kts | 37° |
| 2026-04-29 18:37 | 6.17035 | -75.42652 | 7016 ft | 6 kts | 48° |
| 2026-04-29 18:38 | 6.17041 | -75.42595 | 7017 ft | 11 kts | 118° |
| 2026-04-29 18:38 | 6.16966 | -75.42540 | 7019 ft | 15 kts | 149° |
| 2026-04-29 18:38 | 6.16869 | -75.42488 | 7017 ft | 17 kts | 159° |
| 2026-04-29 18:38 | 6.16744 | -75.42480 | 7011 ft | 20 kts | 180° |
| 2026-04-29 18:39 | 6.16593 | -75.42484 | 7003 ft | 24 kts | 182° |
| 2026-04-29 18:39 | 6.16432 | -75.42484 | 6990 ft | 25 kts | 179° |
| 2026-04-29 18:39 | 6.16250 | -75.42483 | 6986 ft | 27 kts | 180° |
| 2026-04-29 18:39 | 6.16053 | -75.42481 | 6984 ft | 29 kts | 179° |
| 2026-04-29 18:40 | 6.15847 | -75.42477 | 6980 ft | 30 kts | 179° |
| 2026-04-29 18:40 | 6.15637 | -75.42475 | 6980 ft | 30 kts | 180° |
| 2026-04-29 18:40 | 6.15425 | -75.42476 | 6979 ft | 31 kts | 180° |
| 2026-04-29 18:40 | 6.15212 | -75.42477 | 6978 ft | 31 kts | 180° |
| 2026-04-29 18:41 | 6.14890 | -75.42362 | 6977 ft | 16 kts | 58° |
| 2026-04-29 18:41 | 6.14984 | -75.42305 | 6974 ft | 16 kts | 6° |
| 2026-04-29 18:42 | 6.14996 | -75.42305 | 6977 ft | 0 kts | 360° |
| 2026-04-29 18:42 | 6.15147 | -75.42307 | 6979 ft | 58 kts | 359° |
| 2026-04-29 18:42 | 6.15786 | -75.42314 | 6980 ft | 123 kts | 359° |
| 2026-04-29 18:42 | 6.16829 | -75.42318 | 7016 ft | 174 kts | 0° |
| 2026-04-29 18:43 | 6.18084 | -75.42299 | 7521 ft | 181 kts | 1° |
| 2026-04-29 18:43 | 6.19341 | -75.42278 | 8300 ft | 179 kts | 0° |
| 2026-04-29 18:43 | 6.20604 | -75.42257 | 8702 ft | 186 kts | 2° |
| 2026-04-29 18:43 | 6.21854 | -75.41904 | 9033 ft | 195 kts | 36° |
| 2026-04-29 18:44 | 6.22652 | -75.40800 | 9420 ft | 200 kts | 78° |
| 2026-04-29 18:44 | 6.22650 | -75.39399 | 9885 ft | 205 kts | 95° |
| 2026-04-29 18:44 | 6.22674 | -75.37949 | 10320 ft | 210 kts | 76° |
| 2026-04-29 18:44 | 6.23138 | -75.36527 | 10689 ft | 221 kts | 68° |
| 2026-04-29 18:45 | 6.23829 | -75.35089 | 11062 ft | 238 kts | 62° |
| 2026-04-29 18:45 | 6.24673 | -75.33597 | 11316 ft | 260 kts | 61° |
| 2026-04-29 18:45 | 6.25615 | -75.31935 | 11602 ft | 281 kts | 63° |
| 2026-04-29 18:45 | 6.26552 | -75.30116 | 11872 ft | 305 kts | 65° |
| 2026-04-29 18:46 | 6.27520 | -75.28133 | 12073 ft | 328 kts | 65° |
| 2026-04-29 18:46 | 6.28526 | -75.26029 | 12354 ft | 346 kts | 65° |
| 2026-04-29 18:46 | 6.29579 | -75.23823 | 12937 ft | 353 kts | 66° |
| 2026-04-29 18:46 | 6.30627 | -75.21575 | 13631 ft | 357 kts | 66° |
| 2026-04-29 18:47 | 6.31670 | -75.19297 | 14316 ft | 360 kts | 66° |
| 2026-04-29 18:47 | 6.32714 | -75.16998 | 14960 ft | 362 kts | 66° |
| 2026-04-29 18:47 | 6.33726 | -75.14776 | 15548 ft | 366 kts | 66° |
| 2026-04-29 18:47 | 6.34793 | -75.12450 | 16157 ft | 368 kts | 66° |
| 2026-04-29 18:48 | 6.35874 | -75.10100 | 16764 ft | 371 kts | 66° |
| 2026-04-29 18:48 | 6.36961 | -75.07738 | 17342 ft | 374 kts | 66° |
| 2026-04-29 18:48 | 6.38059 | -75.05356 | 17916 ft | 377 kts | 66° |
| 2026-04-29 18:48 | 6.39165 | -75.02961 | 18489 ft | 379 kts | 66° |
| 2026-04-29 18:49 | 6.40278 | -75.00547 | 19053 ft | 382 kts | 66° |
| 2026-04-29 18:49 | 6.41395 | -74.98114 | 19614 ft | 385 kts | 66° |
| 2026-04-29 18:49 | 6.42525 | -74.95655 | 20139 ft | 389 kts | 66° |
| 2026-04-29 18:49 | 6.43665 | -74.93176 | 20663 ft | 393 kts | 66° |
| 2026-04-29 18:50 | 6.44819 | -74.90668 | 21167 ft | 396 kts | 66° |
| 2026-04-29 18:50 | 6.45982 | -74.88139 | 21658 ft | 400 kts | 66° |
| 2026-04-29 18:50 | 6.47153 | -74.85591 | 22138 ft | 404 kts | 66° |
| 2026-04-29 18:50 | 6.48336 | -74.83019 | 22619 ft | 407 kts | 66° |
| 2026-04-29 18:51 | 6.49513 | -74.80459 | 23076 ft | 410 kts | 66° |
| 2026-04-29 18:51 | 6.50716 | -74.77848 | 23504 ft | 413 kts | 66° |
| 2026-04-29 18:51 | 6.51929 | -74.75214 | 23920 ft | 417 kts | 66° |
| 2026-04-29 18:51 | 6.53150 | -74.72558 | 24333 ft | 420 kts | 66° |
| 2026-04-29 18:52 | 6.54380 | -74.69883 | 24741 ft | 423 kts | 66° |
| 2026-04-29 18:52 | 6.55618 | -74.67187 | 25132 ft | 426 kts | 66° |
| 2026-04-29 18:52 | 6.56867 | -74.64467 | 25490 ft | 429 kts | 66° |
| 2026-04-29 18:52 | 6.58120 | -74.61731 | 25846 ft | 432 kts | 66° |
| 2026-04-29 18:53 | 6.59384 | -74.58974 | 26196 ft | 435 kts | 66° |
| 2026-04-29 18:53 | 6.60659 | -74.56202 | 26518 ft | 438 kts | 66° |
| 2026-04-29 18:53 | 6.61974 | -74.53419 | 26846 ft | 441 kts | 64° |
| 2026-04-29 18:53 | 6.63405 | -74.50678 | 27167 ft | 444 kts | 62° |
| 2026-04-29 18:54 | 6.64932 | -74.47965 | 27490 ft | 447 kts | 60° |
| 2026-04-29 18:54 | 6.66510 | -74.45264 | 27789 ft | 450 kts | 60° |
| 2026-04-29 18:54 | 6.68110 | -74.42550 | 28094 ft | 452 kts | 60° |
| 2026-04-29 18:54 | 6.69702 | -74.39811 | 28385 ft | 455 kts | 60° |
| 2026-04-29 18:55 | 6.71287 | -74.37036 | 28670 ft | 458 kts | 60° |
| 2026-04-29 18:55 | 6.72856 | -74.34249 | 28943 ft | 460 kts | 61° |
| 2026-04-29 18:55 | 6.74426 | -74.31433 | 29213 ft | 462 kts | 61° |
| 2026-04-29 18:55 | 6.75996 | -74.28604 | 29489 ft | 465 kts | 61° |
| 2026-04-29 18:56 | 6.77578 | -74.25757 | 29748 ft | 467 kts | 61° |
| 2026-04-29 18:56 | 6.78630 | -74.23867 | 29906 ft | 468 kts | 61° |
| 2026-04-29 18:56 | 6.80231 | -74.21001 | 30141 ft | 471 kts | 60° |
| 2026-04-29 18:56 | 6.82389 | -74.17151 | 30461 ft | 473 kts | 60° |
| 2026-04-29 18:57 | 6.83460 | -74.15243 | 30607 ft | 474 kts | 61° |
| 2026-04-29 18:57 | 6.85084 | -74.12341 | 30842 ft | 476 kts | 60° |
| 2026-04-29 18:57 | 6.86707 | -74.09438 | 31067 ft | 477 kts | 60° |
| 2026-04-29 18:57 | 6.88330 | -74.06536 | 31324 ft | 477 kts | 61° |
| 2026-04-29 18:58 | 6.89958 | -74.03625 | 31625 ft | 477 kts | 61° |
| 2026-04-29 18:58 | 6.91586 | -74.00716 | 31956 ft | 476 kts | 60° |
| 2026-04-29 18:58 | 6.93211 | -73.97817 | 32270 ft | 475 kts | 60° |
| 2026-04-29 18:58 | 6.94835 | -73.94917 | 32563 ft | 475 kts | 60° |
| 2026-04-29 18:59 | 6.96456 | -73.92020 | 32854 ft | 475 kts | 60° |
| 2026-04-29 18:59 | 6.98075 | -73.89127 | 33149 ft | 474 kts | 60° |
| 2026-04-29 18:59 | 6.99689 | -73.86240 | 33448 ft | 473 kts | 60° |
| 2026-04-29 18:59 | 7.01301 | -73.83357 | 33738 ft | 473 kts | 60° |
| 2026-04-29 19:00 | 7.02945 | -73.80488 | 34015 ft | 472 kts | 57° |
| 2026-04-29 19:00 | 7.04826 | -73.77774 | 34288 ft | 473 kts | 54° |
| 2026-04-29 19:00 | 7.06727 | -73.75077 | 34588 ft | 472 kts | 54° |
| 2026-04-29 19:00 | 7.08617 | -73.72388 | 34877 ft | 471 kts | 54° |
| 2026-04-29 19:01 | 7.10512 | -73.69689 | 35167 ft | 471 kts | 54° |
| 2026-04-29 19:01 | 7.12398 | -73.67001 | 35425 ft | 470 kts | 54° |
| 2026-04-29 19:01 | 7.14260 | -73.64346 | 35671 ft | 470 kts | 54° |
| 2026-04-29 19:01 | 7.16145 | -73.61659 | 35914 ft | 470 kts | 54° |
| 2026-04-29 19:02 | 7.18031 | -73.58970 | 36144 ft | 470 kts | 54° |
| 2026-04-29 19:02 | 7.19920 | -73.56279 | 36367 ft | 470 kts | 54° |
| 2026-04-29 19:02 | 7.21808 | -73.53589 | 36592 ft | 470 kts | 54° |
| 2026-04-29 19:02 | 7.23689 | -73.50911 | 36857 ft | 468 kts | 54° |
| 2026-04-29 19:03 | 7.27424 | -73.45596 | 36958 ft | 461 kts | 54° |
| 2026-04-29 19:03 | 7.31116 | -73.40332 | 36973 ft | 460 kts | 54° |
| 2026-04-29 19:04 | 7.34800 | -73.35069 | 36982 ft | 459 kts | 54° |
| 2026-04-29 19:04 | 7.38481 | -73.29817 | 36989 ft | 459 kts | 54° |
| 2026-04-29 19:05 | 7.42158 | -73.24564 | 36989 ft | 459 kts | 54° |
| 2026-04-29 19:05 | 7.45836 | -73.19308 | 36987 ft | 459 kts | 54° |
| 2026-04-29 19:06 | 7.49524 | -73.14049 | 36992 ft | 460 kts | 54° |
| 2026-04-29 19:07 | 7.55070 | -73.06142 | 37001 ft | 460 kts | 54° |
| 2026-04-29 19:07 | 7.58750 | -73.00871 | 36999 ft | 460 kts | 54° |
| 2026-04-29 19:08 | 7.62433 | -72.95602 | 36993 ft | 459 kts | 54° |
| 2026-04-29 19:08 | 7.66094 | -72.90377 | 36984 ft | 459 kts | 54° |
| 2026-04-29 19:09 | 7.69795 | -72.85079 | 36971 ft | 459 kts | 54° |
| 2026-04-29 19:09 | 7.73452 | -72.79837 | 36966 ft | 460 kts | 54° |
| 2026-04-29 19:10 | 7.77140 | -72.74560 | 36964 ft | 460 kts | 54° |
| 2026-04-29 19:10 | 7.80826 | -72.69284 | 36960 ft | 460 kts | 54° |
| 2026-04-29 19:11 | 7.84521 | -72.64001 | 36956 ft | 461 kts | 54° |
| 2026-04-29 19:11 | 7.88214 | -72.58714 | 36955 ft | 461 kts | 54° |
| 2026-04-29 19:12 | 7.92015 | -72.53527 | 36952 ft | 459 kts | 46° |
| 2026-04-29 19:12 | 7.96966 | -72.49518 | 36946 ft | 456 kts | 27° |
| 2026-04-29 19:13 | 8.02615 | -72.46621 | 36936 ft | 456 kts | 25° |
| 2026-04-29 19:13 | 8.08275 | -72.43724 | 36921 ft | 457 kts | 25° |
| 2026-04-29 19:14 | 8.13940 | -72.40810 | 36913 ft | 457 kts | 25° |
| 2026-04-29 19:14 | 8.19599 | -72.37899 | 36903 ft | 457 kts | 25° |
| 2026-04-29 19:15 | 8.25221 | -72.34906 | 36910 ft | 457 kts | 27° |
| 2026-04-29 19:15 | 8.30768 | -72.31761 | 36906 ft | 457 kts | 28° |
| 2026-04-29 19:16 | 8.36306 | -72.28605 | 36904 ft | 457 kts | 28° |
| 2026-04-29 19:16 | 8.41833 | -72.25505 | 36904 ft | 457 kts | 27° |
| 2026-04-29 19:17 | 8.47408 | -72.22404 | 36908 ft | 457 kts | 27° |